Portada
METAR-TAF:

METAR-TAF

Aeroports :

Haikou, Xina

latitud: 19-56-05N, longitud: 110-27-32E, altitud: 23 m

Observació

L'informe es va fer fa 55 minuts, a les 17:00 UTC
Vent 4 kt del Sud/Sud-Est, variant entre Sud-Est i Sud/Sud-Oest
Temperatura 24°C
Humitat 89%
Pressió 1009 hPa
Visibilitat 10 km o més
sense núvols per sota de 1500 mi sense presència de cumulonimbus.

METAR: ZJHK 211700Z 16002MPS 130V200 CAVOK 24/22 Q1009 NOSIG

Hora: 01:55 (17:55 UTC)

Pronòstic

L'informe es va fer fa 2 hores i 52 minuts, a les 15:03 UTC
Pronòstic vàlid del 21 a les 18 UTC al 22 a les 18 UTC
Vent 6 kt del Sud
Visibilitat: 7000 m
Núvols disperses a una alçada de 3000 ft
Temporalment
l' 22 a les 06 UTC al 22 a les 12 UTC
Vent 10 kt del Nord/Nord-Est
Núvols disperses a una alçada de 2000 ft
Escasses núvols a una alçada de 2300 ft, Cumulonimbus.

TAF: ZJHK 211503Z 2118/2218 17003MPS 7000 SCT030 TX35/2206Z TN23/2121Z TEMPO 2206/2212 03005MPS SCT020 FEW023CB

Observacions i pronòstics meteorològics de més de 4000 aeroports (METAR i TAF).

Les estacions disponibles són els punts grocs i vermells al mapa.

Posi el ratolí al punt desitjat per veure el nom de l'estació.

Feu clic per veure les observacions i els pronòstics meteorològics.

Per canviar el mapa: feu clic els botons verds amb una creu de color negre per apropar; al botó verd amb un guió per allunyar la imatge; o en les fletxes verdes per a mapes adjacents.


METAR-TAF: